Time;durP1;ratioP1;P1;durP2;ratioP2;P2;SDS_P1;SDS_P2;PMS_P1;PMS_P2;Temp;Humidity;BMP_temperature;BMP_pressure;BME280_temperature;BME280_humidity;BME280_pressure;Samples;Min_cycle;Max_cycle;Signal;HPM_P1;HPM_P2
2021/01/09 00:00:55;;;;;;;23.55;14.32;;;-1.40;99.90;;;;;;5047308;28;20702;-75
2021/01/09 00:03:22;;;;;;;25.63;15.05;;;-1.40;99.90;;;;;;5048030;28;20041;-75
2021/01/09 00:05:52;;;;;;;24.58;15.43;;;-1.40;99.90;;;;;;5047949;28;20056;-75
2021/01/09 00:08:20;;;;;;;26.15;14.82;;;-1.40;99.90;;;;;;5047242;28;20144;-77
2021/01/09 00:10:49;;;;;;;24.83;14.73;;;-1.40;99.90;;;;;;5047439;28;20408;-75
2021/01/09 00:13:16;;;;;;;26.48;15.13;;;-1.40;99.90;;;;;;5047559;28;20049;-77
2021/01/09 00:15:43;;;;;;;23.75;14.50;;;-1.40;99.90;;;;;;5046656;28;20072;-74
2021/01/09 00:18:09;;;;;;;29.83;15.52;;;-1.40;99.90;;;;;;5047652;28;20443;-74
2021/01/09 00:20:36;;;;;;;27.58;15.20;;;-1.40;99.90;;;;;;5046646;28;20454;-74
2021/01/09 00:23:02;;;;;;;28.83;16.45;;;-1.40;99.90;;;;;;5048024;28;20049;-74
2021/01/09 00:25:28;;;;;;;29.35;15.55;;;-1.40;99.90;;;;;;5045985;28;20122;-75
2021/01/09 00:27:54;;;;;;;29.52;16.10;;;-1.40;99.90;;;;;;5047501;28;20789;-75
2021/01/09 00:30:21;;;;;;;26.00;16.15;;;-1.40;99.90;;;;;;5046370;28;20037;-76
2021/01/09 00:32:47;;;;;;;27.50;15.50;;;-1.40;99.90;;;;;;5047589;28;20052;-74
2021/01/09 00:35:14;;;;;;;28.30;16.65;;;-1.40;99.90;;;;;;5047254;28;20068;-74
2021/01/09 00:37:40;;;;;;;29.00;16.30;;;-1.40;99.90;;;;;;5047402;28;20041;-74
2021/01/09 00:40:07;;;;;;;30.15;16.55;;;-1.40;99.90;;;;;;5033747;28;20103;-74
2021/01/09 00:42:38;;;;;;;27.45;15.70;;;-1.30;99.90;;;;;;5029400;28;20474;-74
2021/01/09 00:45:06;;;;;;;28.17;15.57;;;-1.40;99.90;;;;;;5046416;28;20048;-74
2021/01/09 00:47:33;;;;;;;27.73;15.93;;;-1.40;99.90;;;;;;5047055;28;20045;-74
2021/01/09 00:49:59;;;;;;;28.30;14.73;;;-1.40;99.90;;;;;;5043741;28;20064;-74
2021/01/09 00:52:26;;;;;;;28.67;16.15;;;-1.40;99.90;;;;;;5041158;28;20543;-75
2021/01/09 00:54:52;;;;;;;24.70;16.10;;;-1.40;99.90;;;;;;5027589;28;20099;-74
2021/01/09 00:57:19;;;;;;;28.45;16.10;;;-1.40;99.90;;;;;;5047888;28;20159;-74
2021/01/09 00:59:48;;;;;;;29.60;17.50;;;-1.40;99.90;;;;;;5046460;28;20068;-75
2021/01/09 01:02:15;;;;;;;27.60;16.90;;;-1.40;99.90;;;;;;5046270;28;20083;-74
2021/01/09 01:04:41;;;;;;;30.05;17.02;;;-1.30;99.90;;;;;;5028925;28;20045;-75
2021/01/09 01:07:08;;;;;;;31.40;17.10;;;-1.30;99.90;;;;;;5046800;28;20037;-73
2021/01/09 01:09:34;;;;;;;30.73;17.08;;;-1.30;99.90;;;;;;5045011;28;20140;-75
2021/01/09 01:12:02;;;;;;;27.45;16.38;;;-1.30;99.90;;;;;;5046862;28;20532;-75
2021/01/09 01:14:29;;;;;;;25.55;16.23;;;-1.30;99.90;;;;;;5046333;28;20106;-76
2021/01/09 01:16:55;;;;;;;26.35;15.15;;;-1.20;99.90;;;;;;5046558;28;20163;-74
2021/01/09 01:19:22;;;;;;;26.20;15.25;;;-1.20;99.90;;;;;;5046631;28;20559;-75
2021/01/09 01:21:48;;;;;;;26.15;15.35;;;-1.20;99.90;;;;;;5046575;28;20061;-74
2021/01/09 01:24:15;;;;;;;27.08;16.10;;;-1.10;99.90;;;;;;5044625;28;20068;-75
2021/01/09 01:26:41;;;;;;;25.00;15.05;;;-1.10;99.90;;;;;;5046687;28;20072;-74
2021/01/09 01:29:08;;;;;;;23.67;14.43;;;-1.20;99.90;;;;;;5043583;28;20060;-74
2021/01/09 01:31:34;;;;;;;26.48;15.05;;;-1.20;99.90;;;;;;5026488;28;20049;-75
2021/01/09 01:34:00;;;;;;;26.95;15.60;;;-1.20;99.90;;;;;;5042469;28;20247;-76
2021/01/09 01:36:27;;;;;;;23.10;14.80;;;-1.10;99.90;;;;;;5046142;28;20052;-74
2021/01/09 01:38:53;;;;;;;25.58;14.27;;;-1.10;99.90;;;;;;5043297;28;20463;-74
2021/01/09 01:41:20;;;;;;;27.13;15.35;;;-1.10;99.90;;;;;;5046293;28;20099;-75
2021/01/09 01:43:46;;;;;;;25.05;14.95;;;-1.10;99.90;;;;;;5046193;28;20045;-74
2021/01/09 01:46:13;;;;;;;23.02;14.93;;;-1.10;99.90;;;;;;5044874;28;20460;-75
2021/01/09 01:48:39;;;;;;;23.42;14.48;;;-1.10;99.90;;;;;;5046031;28;20057;-75
2021/01/09 01:51:06;;;;;;;23.80;14.60;;;-1.10;99.90;;;;;;5045998;28;20048;-74
2021/01/09 01:53:33;;;;;;;22.95;14.40;;;-1.10;99.90;;;;;;5027345;28;20077;-73
2021/01/09 01:55:59;;;;;;;25.10;15.50;;;-1.00;99.90;;;;;;5045739;28;20088;-74
2021/01/09 01:58:27;;;;;;;28.45;15.82;;;-1.10;99.90;;;;;;5027441;28;20040;-74
2021/01/09 02:00:53;;;;;;;26.73;15.50;;;-1.10;99.90;;;;;;5037260;28;20057;-74
2021/01/09 02:03:21;;;;;;;27.52;15.73;;;-1.10;99.90;;;;;;5045128;28;20060;-75
2021/01/09 02:05:59;;;;;;;26.88;17.25;;;-1.10;99.90;;;;;;5027512;28;20048;-74
2021/01/09 02:08:30;;;;;;;29.58;18.33;;;-1.10;99.90;;;;;;5044019;28;20468;-77
2021/01/09 02:11:01;;;;;;;28.00;16.48;;;-1.10;99.90;;;;;;5045431;28;20125;-73
2021/01/09 02:13:41;;;;;;;30.55;16.83;;;-1.20;99.90;;;;;;5045468;28;20041;-75
2021/01/09 02:16:09;;;;;;;28.45;16.52;;;-1.20;99.90;;;;;;5045068;28;20103;-74
2021/01/09 02:18:38;;;;;;;29.42;17.20;;;-1.20;99.90;;;;;;5023367;28;20053;-74
2021/01/09 02:21:20;;;;;;;26.13;16.73;;;-1.20;99.90;;;;;;5045509;28;20103;-73
2021/01/09 02:23:47;;;;;;;31.00;17.00;;;-1.20;99.90;;;;;;5026488;28;20121;-74
2021/01/09 02:26:13;;;;;;;32.67;17.83;;;-1.20;99.90;;;;;;5027022;28;20087;-74
2021/01/09 02:28:39;;;;;;;28.55;16.60;;;-1.20;99.90;;;;;;5044959;28;20088;-74
2021/01/09 02:31:07;;;;;;;28.67;18.10;;;-1.20;99.90;;;;;;5044994;28;20080;-74
2021/01/09 02:33:36;;;;;;;28.67;17.48;;;-1.20;99.90;;;;;;5045421;28;20056;-74
2021/01/09 02:36:03;;;;;;;27.15;16.75;;;-1.20;99.90;;;;;;5045312;28;20147;-75
2021/01/09 02:38:30;;;;;;;31.80;17.60;;;-1.10;99.90;;;;;;5044212;28;20052;-74
2021/01/09 02:40:59;;;;;;;25.85;16.45;;;-1.20;99.90;;;;;;5044749;28;20041;-74
2021/01/09 02:43:27;;;;;;;28.33;16.25;;;-1.20;99.90;;;;;;5045156;28;20120;-75
2021/01/09 02:45:53;;;;;;;27.33;16.85;;;-1.10;99.90;;;;;;5044351;28;20136;-74
2021/01/09 02:48:20;;;;;;;28.50;16.80;;;-1.10;99.90;;;;;;5045157;28;20212;-76
2021/01/09 02:50:46;;;;;;;27.05;15.88;;;-1.10;99.90;;;;;;5045148;28;20049;-74
2021/01/09 02:53:12;;;;;;;24.63;15.70;;;-1.10;99.90;;;;;;5045396;28;20105;-74
2021/01/09 02:55:39;;;;;;;26.75;15.98;;;-1.10;99.90;;;;;;5043420;28;20127;-74
2021/01/09 02:58:05;;;;;;;25.75;15.52;;;-1.10;99.90;;;;;;5044809;28;20508;-74
2021/01/09 03:00:31;;;;;;;26.88;16.80;;;-1.10;99.90;;;;;;5044306;28;20045;-75
2021/01/09 03:02:58;;;;;;;26.73;15.82;;;-1.10;99.90;;;;;;5044623;28;20049;-74
2021/01/09 03:05:25;;;;;;;29.30;17.23;;;-1.10;99.90;;;;;;5044701;28;20075;-77
2021/01/09 03:07:51;;;;;;;27.40;17.52;;;-1.10;99.90;;;;;;5045145;28;20044;-75
2021/01/09 03:10:17;;;;;;;29.25;17.75;;;-1.20;99.90;;;;;;5042481;28;20041;-76
2021/01/09 03:12:44;;;;;;;32.70;18.83;;;-1.20;99.90;;;;;;5044824;28;20855;-74
2021/01/09 03:15:11;;;;;;;32.38;18.65;;;-1.20;99.90;;;;;;5044076;28;20056;-75
2021/01/09 03:17:37;;;;;;;29.15;17.05;;;-1.20;99.90;;;;;;5045127;28;20102;-74
2021/01/09 03:20:04;;;;;;;31.40;18.10;;;-1.20;99.90;;;;;;5044631;28;20049;-74
2021/01/09 03:22:30;;;;;;;26.83;16.02;;;-1.20;99.90;;;;;;5044260;28;20124;-75
2021/01/09 03:24:57;;;;;;;26.35;17.23;;;-1.20;99.90;;;;;;5042942;28;20137;-75
2021/01/09 03:27:24;;;;;;;28.88;17.42;;;-1.10;99.90;;;;;;5044825;28;20141;-75
2021/01/09 03:29:50;;;;;;;30.13;17.20;;;-1.10;99.90;;;;;;5044677;28;20587;-76
2021/01/09 03:32:17;;;;;;;31.65;19.05;;;-1.10;99.90;;;;;;5044297;28;20049;-74
2021/01/09 03:34:43;;;;;;;29.20;17.25;;;-1.20;99.90;;;;;;5026600;28;20120;-73
2021/01/09 03:37:09;;;;;;;29.00;17.20;;;-1.10;99.90;;;;;;5044771;28;20080;-74
2021/01/09 03:39:35;;;;;;;27.80;17.80;;;-1.10;99.90;;;;;;5033895;28;20151;-75
2021/01/09 03:42:02;;;;;;;27.52;15.90;;;-1.10;99.90;;;;;;5044617;28;20469;-74
2021/01/09 03:44:28;;;;;;;25.42;15.63;;;-1.20;99.90;;;;;;5036856;28;20041;-74
2021/01/09 03:46:54;;;;;;;24.67;15.48;;;-1.10;99.90;;;;;;5044012;28;20547;-74
2021/01/09 03:49:21;;;;;;;24.92;15.88;;;-1.10;99.90;;;;;;5043070;28;20088;-75
2021/01/09 03:51:48;;;;;;;27.52;16.30;;;-1.10;99.90;;;;;;5041731;28;20056;-75
2021/01/09 03:54:14;;;;;;;28.65;15.05;;;-1.10;99.90;;;;;;5042864;28;20060;-75
2021/01/09 03:56:41;;;;;;;26.42;16.05;;;-1.10;99.90;;;;;;5026339;28;20091;-74
2021/01/09 03:59:07;;;;;;;27.30;15.57;;;-1.10;99.90;;;;;;5026268;28;20176;-74
2021/01/09 04:01:33;;;;;;;24.05;15.00;;;-1.10;99.90;;;;;;5044315;28;20072;-74
2021/01/09 04:04:00;;;;;;;26.15;16.10;;;-1.10;99.90;;;;;;5044092;28;20049;-76
2021/01/09 04:06:27;;;;;;;28.98;16.48;;;-1.10;99.90;;;;;;5044115;28;20049;-77
2021/01/09 04:08:54;;;;;;;24.33;15.73;;;-1.10;99.90;;;;;;5042633;28;20152;-74
2021/01/09 04:11:20;;;;;;;27.70;17.23;;;-1.10;99.90;;;;;;5044558;28;20068;-75
2021/01/09 04:13:46;;;;;;;30.77;16.67;;;-1.10;99.90;;;;;;5026450;28;20056;-75
2021/01/09 04:16:13;;;;;;;29.75;18.08;;;-1.10;99.90;;;;;;5043308;28;20166;-76
2021/01/09 04:18:40;;;;;;;28.10;16.05;;;-1.10;99.90;;;;;;5026554;28;20095;-74
2021/01/09 04:21:06;;;;;;;28.02;16.90;;;-1.10;99.90;;;;;;5043974;28;20103;-74
2021/01/09 04:23:33;;;;;;;28.23;16.83;;;-1.10;99.90;;;;;;5043316;28;20104;-75
2021/01/09 04:25:59;;;;;;;27.92;16.55;;;-1.10;99.90;;;;;;5027863;28;20128;-74
2021/01/09 04:28:26;;;;;;;26.65;16.02;;;-1.10;99.90;;;;;;5047347;28;20045;-75
2021/01/09 04:30:52;;;;;;;27.70;16.60;;;-1.10;99.90;;;;;;5029698;28;20080;-74
2021/01/09 04:33:19;;;;;;;27.60;16.48;;;-1.10;99.90;;;;;;5047902;28;20036;-76
2021/01/09 04:35:45;;;;;;;25.40;15.82;;;-1.10;99.90;;;;;;5047863;28;20049;-73
2021/01/09 04:38:11;;;;;;;26.67;16.17;;;-1.10;99.90;;;;;;5047774;28;20132;-73
2021/01/09 04:40:38;;;;;;;26.08;15.35;;;-1.00;99.90;;;;;;5045934;28;20186;-74
2021/01/09 04:43:04;;;;;;;29.02;17.23;;;-1.10;99.90;;;;;;5038878;28;20076;-75
2021/01/09 04:45:30;;;;;;;31.85;17.42;;;-1.00;99.90;;;;;;5046076;28;20124;-75
2021/01/09 04:47:58;;;;;;;29.25;17.35;;;-1.10;99.90;;;;;;5028055;28;20167;-75
2021/01/09 04:50:26;;;;;;;28.63;17.27;;;-1.10;99.90;;;;;;5036882;28;20064;-77
2021/01/09 04:52:53;;;;;;;25.90;16.90;;;-1.10;99.90;;;;;;5030119;28;20068;-76
2021/01/09 04:55:19;;;;;;;33.08;19.00;;;-1.10;99.90;;;;;;5026534;28;20488;-76
2021/01/09 04:57:46;;;;;;;34.13;18.52;;;-1.10;99.90;;;;;;5039439;28;20499;-76
2021/01/09 05:00:12;;;;;;;34.92;18.95;;;-1.20;99.90;;;;;;5027897;28;20041;-75
2021/01/09 05:02:39;;;;;;;30.27;18.35;;;-1.20;99.90;;;;;;5046637;28;20041;-76
2021/01/09 05:05:06;;;;;;;34.45;19.17;;;-1.20;99.90;;;;;;5046506;28;20075;-75
2021/01/09 05:07:33;;;;;;;28.58;18.20;;;-1.30;99.90;;;;;;5038840;28;20443;-76
2021/01/09 05:10:06;;;;;;;30.83;18.65;;;-1.30;99.90;;;;;;5042592;28;20053;-75
2021/01/09 05:12:35;;;;;;;31.10;18.30;;;-1.30;99.90;;;;;;5034986;28;20045;-76
2021/01/09 05:15:03;;;;;;;31.90;18.98;;;-1.30;99.90;;;;;;5027847;28;20377;-77
2021/01/09 05:17:29;;;;;;;35.17;18.83;;;-1.40;99.90;;;;;;5046369;28;20127;-76
2021/01/09 05:19:57;;;;;;;30.50;18.67;;;-1.40;99.90;;;;;;5046092;28;20132;-74
2021/01/09 05:22:24;;;;;;;32.38;18.42;;;-1.40;99.90;;;;;;5045756;28;20138;-76
2021/01/09 05:24:52;;;;;;;29.10;17.70;;;-1.40;99.90;;;;;;5045059;28;20040;-76
2021/01/09 05:27:23;;;;;;;29.00;18.65;;;-1.40;99.90;;;;;;5046075;28;20045;-76
2021/01/09 05:29:53;;;;;;;31.08;19.30;;;-1.40;99.90;;;;;;5028235;28;20080;-75
2021/01/09 05:32:21;;;;;;;30.90;18.77;;;-1.30;99.90;;;;;;5046071;28;20392;-76
2021/01/09 05:34:55;;;;;;;33.47;19.40;;;-1.30;99.90;;;;;;5028504;28;20047;-76
2021/01/09 05:37:24;;;;;;;30.48;18.92;;;-1.30;99.90;;;;;;5046304;28;20124;-75
2021/01/09 05:39:53;;;;;;;33.15;19.25;;;-1.30;99.90;;;;;;5044316;28;20072;-77
2021/01/09 05:42:24;;;;;;;33.25;20.23;;;-1.20;99.90;;;;;;5045005;28;20059;-75
2021/01/09 05:44:53;;;;;;;31.08;18.90;;;-1.20;99.90;;;;;;5040810;28;20052;-77
2021/01/09 05:47:23;;;;;;;34.63;20.17;;;-1.20;99.90;;;;;;5046376;28;20049;-76
2021/01/09 05:50:08;;;;;;;34.08;19.92;;;-1.20;99.90;;;;;;5043877;28;20045;-75
2021/01/09 05:52:38;;;;;;;35.38;18.98;;;-1.10;99.90;;;;;;5045746;28;20049;-76
2021/01/09 05:55:06;;;;;;;36.55;19.52;;;-1.10;99.90;;;;;;5044096;28;20056;-75
2021/01/09 05:57:33;;;;;;;36.35;20.20;;;-1.10;99.90;;;;;;5045699;28;20381;-76
2021/01/09 06:00:04;;;;;;;37.20;20.70;;;-1.10;99.90;;;;;;5027193;28;20068;-75
2021/01/09 06:02:59;;;;;;;30.35;18.65;;;-1.00;99.90;;;;;;5043120;28;20088;-75
2021/01/09 06:05:38;;;;;;;32.92;19.48;;;-1.00;99.90;;;;;;5037588;28;20814;-76
2021/01/09 06:08:07;;;;;;;35.13;20.73;;;-1.00;99.90;;;;;;5033197;28;20077;-74
2021/01/09 06:10:38;;;;;;;31.63;19.45;;;-1.00;99.90;;;;;;5019982;28;20061;-74
2021/01/09 06:13:07;;;;;;;34.15;19.20;;;-1.00;99.90;;;;;;5010127;28;20073;-74
2021/01/09 06:15:36;;;;;;;31.30;19.83;;;-1.00;99.90;;;;;;5033764;28;20137;-74
2021/01/09 06:18:03;;;;;;;36.83;20.23;;;-1.00;99.90;;;;;;5028427;28;20735;-80
2021/01/09 06:20:29;;;;;;;35.40;21.85;;;-1.00;99.90;;;;;;5026687;28;20072;-80
2021/01/09 06:22:58;;;;;;;37.80;21.10;;;-1.00;99.90;;;;;;5027719;28;20107;-81
2021/01/09 06:25:27;;;;;;;32.97;20.65;;;-1.00;99.90;;;;;;5028932;28;20055;-81
2021/01/09 06:28:01;;;;;;;39.10;21.45;;;-1.00;99.90;;;;;;5028718;28;20124;-81
2021/01/09 06:30:32;;;;;;;36.13;21.38;;;-1.00;99.90;;;;;;5030240;28;20040;-82
2021/01/09 06:33:02;;;;;;;36.92;21.25;;;-1.00;99.90;;;;;;5033651;28;20072;-82
2021/01/09 06:35:33;;;;;;;38.47;22.13;;;-1.00;99.90;;;;;;5028150;28;20034;-75
2021/01/09 06:38:01;;;;;;;36.30;21.98;;;-1.00;99.90;;;;;;5011202;28;20408;-75
2021/01/09 06:40:33;;;;;;;34.97;21.15;;;-1.00;99.90;;;;;;5028322;28;20053;-77
2021/01/09 06:43:00;;;;;;;34.90;20.88;;;-1.00;99.90;;;;;;5032841;28;20045;-76
2021/01/09 06:45:51;;;;;;;31.77;19.27;;;-0.90;99.90;;;;;;5038849;28;20467;-75
2021/01/09 06:48:21;;;;;;;32.15;19.88;;;-0.90;99.90;;;;;;5027242;28;20053;-76
2021/01/09 06:50:47;;;;;;;38.22;21.42;;;-0.90;99.90;;;;;;5025410;28;20450;-76
2021/01/09 06:53:14;;;;;;;38.85;22.00;;;-0.90;99.90;;;;;;5027709;28;20076;-74
2021/01/09 06:55:41;;;;;;;39.03;22.58;;;-0.90;99.90;;;;;;5026353;28;20122;-74
2021/01/09 06:58:08;;;;;;;39.92;23.20;;;-0.90;99.90;;;;;;5033859;28;20045;-74
2021/01/09 07:00:37;;;;;;;41.50;24.38;;;-0.90;99.90;;;;;;5036046;28;20149;-74
2021/01/09 07:03:17;;;;;;;39.90;25.42;;;-0.90;99.90;;;;;;5037179;28;20151;-74
2021/01/09 07:05:51;;;;;;;47.75;25.58;;;-0.80;99.90;;;;;;5024060;28;20132;-75
2021/01/09 07:08:23;;;;;;;42.88;25.05;;;-0.80;99.90;;;;;;5025935;28;20048;-75
2021/01/09 07:10:52;;;;;;;44.47;24.83;;;-0.80;99.90;;;;;;5025894;28;20103;-74
2021/01/09 07:13:21;;;;;;;42.72;24.98;;;-0.80;99.90;;;;;;5026900;28;20056;-74
2021/01/09 07:16:09;;;;;;;48.53;25.98;;;-0.80;99.90;;;;;;5035880;28;20121;-74
2021/01/09 07:18:41;;;;;;;46.22;24.42;;;-0.80;99.90;;;;;;5031567;28;20111;-74
2021/01/09 07:21:11;;;;;;;42.20;24.08;;;-0.80;99.90;;;;;;5028239;28;20497;-74
2021/01/09 07:23:38;;;;;;;47.03;25.52;;;-0.90;99.90;;;;;;5005424;28;20081;-73
2021/01/09 07:26:07;;;;;;;42.90;24.38;;;-0.80;99.90;;;;;;5024751;28;20500;-73
2021/01/09 07:28:35;;;;;;;48.65;27.60;;;-0.80;99.90;;;;;;5028773;28;20121;-74
2021/01/09 07:31:10;;;;;;;44.22;25.52;;;-0.80;99.90;;;;;;5026630;28;20063;-73
2021/01/09 07:33:38;;;;;;;44.25;26.27;;;-0.80;99.90;;;;;;5024838;28;20159;-74
2021/01/09 07:36:05;;;;;;;45.58;25.55;;;-0.80;99.90;;;;;;5027195;28;20830;-73
2021/01/09 07:38:31;;;;;;;46.58;26.75;;;-0.80;99.90;;;;;;5005716;28;20080;-72
2021/01/09 07:41:02;;;;;;;46.80;26.25;;;-0.70;99.90;;;;;;5007162;28;20077;-73
2021/01/09 07:43:45;;;;;;;52.05;28.17;;;-0.70;99.90;;;;;;5006783;28;20053;-74
2021/01/09 07:46:29;;;;;;;51.97;27.80;;;-0.70;99.90;;;;;;5025987;28;20052;-73
2021/01/09 07:48:58;;;;;;;61.33;32.95;;;-0.70;99.90;;;;;;5039425;28;20081;-73
2021/01/09 07:52:06;;;;;;;65.50;36.40;;;-0.70;99.90;;;;;;5025947;28;20096;-75
2021/01/09 07:54:44;;;;;;;67.72;34.97;;;-0.70;99.90;;;;;;5012340;28;20496;-75
2021/01/09 07:57:17;;;;;;;67.78;34.45;;;-0.70;99.90;;;;;;5008920;28;20060;-74
2021/01/09 08:00:00;;;;;;;;;;;-0.70;99.90;;;;;;5030391;28;20127;-74
2021/01/09 08:02:38;;;;;;;65.82;34.25;;;-0.70;99.90;;;;;;5026608;28;19975;-74
2021/01/09 08:05:21;;;;;;;67.70;34.67;;;-0.60;99.90;;;;;;5011334;28;20081;-75
2021/01/09 08:07:56;;;;;;;66.80;35.63;;;-0.60;99.90;;;;;;5010947;28;20576;-74
2021/01/09 08:10:32;;;;;;;63.28;35.08;;;-0.60;99.90;;;;;;5031597;28;20068;-74
2021/01/09 08:13:01;;;;;;;66.68;34.92;;;-0.60;99.90;;;;;;5037785;28;20068;-75
2021/01/09 08:15:31;;;;;;;60.60;33.92;;;-0.50;99.90;;;;;;5037585;28;20045;-74
2021/01/09 08:18:05;;;;;;;66.25;35.40;;;-0.50;99.90;;;;;;5045706;28;20049;-74
2021/01/09 08:20:33;;;;;;;66.07;32.60;;;-0.40;99.90;;;;;;5038473;28;20073;-75
2021/01/09 08:23:00;;;;;;;59.60;32.70;;;-0.40;99.90;;;;;;5037212;28;20077;-73
2021/01/09 08:25:29;;;;;;;64.53;33.97;;;-0.40;99.90;;;;;;5036226;28;20128;-74
2021/01/09 08:27:57;;;;;;;62.28;33.42;;;-0.30;99.90;;;;;;5032410;28;20389;-74
2021/01/09 08:30:26;;;;;;;63.13;32.63;;;-0.30;99.90;;;;;;5029092;28;20045;-74
2021/01/09 08:33:11;;;;;;;64.95;33.40;;;-0.30;99.90;;;;;;5040255;28;20041;-76
2021/01/09 08:35:49;;;;;;;61.50;32.60;;;-0.30;99.90;;;;;;5038117;28;20480;-74
2021/01/09 08:38:17;;;;;;;66.32;36.15;;;-0.30;99.90;;;;;;5029430;28;20388;-73
2021/01/09 08:40:43;;;;;;;71.10;37.83;;;-0.30;99.90;;;;;;5018653;28;20076;-74
2021/01/09 08:43:12;;;;;;;74.53;37.15;;;-0.30;99.90;;;;;;5042820;28;20575;-74
2021/01/09 08:45:45;;;;;;;81.85;40.88;;;-0.30;99.90;;;;;;5027896;28;20503;-75
2021/01/09 08:48:12;;;;;;;74.97;37.42;;;-0.30;99.90;;;;;;5030093;28;20042;-74
2021/01/09 08:50:46;;;;;;;73.38;37.40;;;-0.20;99.90;;;;;;5034810;28;20037;-76
2021/01/09 08:53:15;;;;;;;83.30;42.10;;;-0.20;99.90;;;;;;5030113;28;20456;-74
2021/01/09 08:55:43;;;;;;;76.80;39.50;;;-0.20;99.90;;;;;;5029186;28;20045;-74
2021/01/09 08:58:12;;;;;;;71.10;38.67;;;-0.30;99.90;;;;;;5022760;28;20057;-76
2021/01/09 09:00:39;;;;;;;75.03;38.08;;;-0.30;99.90;;;;;;5045990;28;20045;-75
2021/01/09 09:03:08;;;;;;;86.50;41.88;;;-0.30;99.90;;;;;;5046544;28;20186;-76
2021/01/09 09:05:37;;;;;;;78.50;38.67;;;-0.30;99.90;;;;;;5021132;28;20037;-74
2021/01/09 09:08:12;;;;;;;79.63;40.33;;;-0.30;99.90;;;;;;5029284;28;20045;-75
2021/01/09 09:10:46;;;;;;;86.93;42.03;;;-0.30;99.90;;;;;;5027324;28;20069;-75
2021/01/09 09:18:07;;;;;;;80.47;37.45;;;-0.10;99.90;;;;;;4870762;29;20738;-75
2021/01/09 09:27:53;;;;;;;79.68;39.50;;;0.00;99.90;;;;;;5060120;28;20105;-75
2021/01/09 09:38:06;;;;;;;67.30;34.90;;;0.20;99.90;;;;;;4899635;29;20571;-74
2021/01/09 09:43:37;;;;;;;67.80;36.60;;;0.40;99.90;;;;;;4882182;29;20412;-75
2021/01/09 09:46:14;;;;;;;64.40;34.33;;;0.40;99.90;;;;;;4885245;29;20044;-75
2021/01/09 09:49:42;;;;;;;56.22;28.42;;;0.50;99.90;;;;;;4584889;27;15049628;-74
2021/01/09 09:55:38;;;;;;;56.25;29.92;;;0.40;99.90;;;;;;5014557;28;20486;-74
2021/01/09 10:01:59;;;;;;;56.00;30.63;;;0.50;99.90;;;;;;5009756;28;20077;-75
2021/01/09 10:04:53;;;;;;;49.38;27.92;;;0.60;99.90;;;;;;4972986;28;20050;-74
2021/01/09 10:07:40;;;;;;;42.75;25.20;;;0.80;99.90;;;;;;4977521;28;20043;-74
2021/01/09 10:13:52;;;;;;;48.97;25.35;;;1.10;99.90;;;;;;4960104;28;20108;-75
2021/01/09 10:16:53;;;;;;;39.08;21.60;;;1.20;99.90;;;;;;4976021;28;20146;-74
2021/01/09 10:19:41;;;;;;;35.45;20.92;;;1.20;99.90;;;;;;4974136;28;20050;-75
2021/01/09 10:22:53;;;;;;;39.78;23.73;;;1.30;99.90;;;;;;4966099;28;20042;-74
2021/01/09 10:28:30;;;;;;;34.83;20.05;;;1.40;99.90;;;;;;4876148;29;20069;-76
2021/01/09 10:31:08;;;;;;;36.63;22.00;;;1.40;99.90;;;;;;4880066;29;20627;-74
2021/01/09 10:33:52;;;;;;;40.92;21.77;;;1.40;99.90;;;;;;4954465;28;20051;-75
2021/01/09 10:36:56;;;;;;;39.28;21.65;;;1.50;99.90;;;;;;4941521;28;20046;-75
2021/01/09 10:39:28;;;;;;;33.75;21.02;;;1.60;99.90;;;;;;4940503;28;20061;-74
2021/01/09 10:42:21;;;;;;;36.35;21.58;;;1.50;99.90;;;;;;4973429;28;20378;-75
2021/01/09 10:45:15;;;;;;;40.30;22.48;;;1.70;99.90;;;;;;4995815;28;20060;-75
2021/01/09 10:47:43;;;;;;;38.75;23.02;;;1.70;99.90;;;;;;4975715;28;20523;-74
2021/01/09 10:54:15;;;;;;;40.10;25.10;;;1.60;99.90;;;;;;4974043;28;20050;-74
2021/01/09 10:56:50;;;;;;;37.55;21.80;;;1.70;99.90;;;;;;4956348;28;20138;-75
2021/01/09 10:59:17;;;;;;;34.45;20.30;;;1.90;99.90;;;;;;4969416;28;20164;-74
2021/01/09 11:01:57;;;;;;;35.85;21.50;;;1.80;99.90;;;;;;4991026;28;20071;-75
2021/01/09 11:04:27;;;;;;;34.70;21.75;;;1.80;99.90;;;;;;5058332;28;20051;-75
2021/01/09 11:07:14;;;;;;;33.00;20.33;;;1.80;99.90;;;;;;5048380;28;20043;-75
2021/01/09 11:09:53;;;;;;;33.22;20.15;;;1.80;99.90;;;;;;5038774;28;20053;-75
2021/01/09 11:12:32;;;;;;;31.08;20.08;;;1.70;99.90;;;;;;5057973;28;20078;-75
2021/01/09 11:15:10;;;;;;;30.30;17.98;;;1.60;99.90;;;;;;5056591;28;20571;-75
2021/01/09 11:17:46;;;;;;;30.50;17.70;;;1.60;99.90;;;;;;5061117;28;20048;-75
2021/01/09 11:20:28;;;;;;;30.17;18.40;;;1.60;99.90;;;;;;5066907;28;20040;-75
2021/01/09 11:23:26;;;;;;;31.23;18.50;;;1.70;99.90;;;;;;5061171;28;20114;-75
2021/01/09 11:26:03;;;;;;;30.80;18.38;;;1.90;99.90;;;;;;5066334;28;20053;-75
2021/01/09 11:28:30;;;;;;;35.65;17.73;;;2.20;99.90;;;;;;5065703;28;20044;-74
2021/01/09 11:30:56;;;;;;;25.88;16.25;;;2.70;99.90;;;;;;5067442;28;20052;-76
2021/01/09 11:33:27;;;;;;;28.58;17.00;;;2.60;99.90;;;;;;5062725;28;20059;-75
2021/01/09 11:35:53;;;;;;;26.30;16.17;;;2.60;99.90;;;;;;5067611;28;20045;-74
2021/01/09 11:38:21;;;;;;;23.70;15.40;;;2.70;99.90;;;;;;5066272;28;21274;-75
2021/01/09 11:40:49;;;;;;;26.98;16.23;;;2.60;99.90;;;;;;5063421;28;20052;-74
2021/01/09 11:43:16;;;;;;;26.15;15.13;;;2.70;99.90;;;;;;5067700;28;20127;-74
2021/01/09 11:45:43;;;;;;;23.35;15.68;;;2.90;99.90;;;;;;5064853;28;20059;-75
2021/01/09 11:48:09;;;;;;;23.33;15.20;;;3.30;99.90;;;;;;5064387;28;20114;-75
2021/01/09 11:50:36;;;;;;;22.85;15.02;;;4.30;99.90;;;;;;5066579;28;20053;-72
2021/01/09 11:53:17;;;;;;;22.00;13.00;;;6.00;99.90;;;;;;5066339;28;20128;-73
2021/01/09 11:55:44;;;;;;;18.88;12.60;;;7.40;91.90;;;;;;5063911;28;20620;-73
2021/01/09 11:58:10;;;;;;;19.95;13.75;;;8.60;81.00;;;;;;5066922;28;20113;-74
2021/01/09 12:00:36;;;;;;;16.10;11.95;;;9.20;73.20;;;;;;5066652;28;20048;-73
2021/01/09 12:03:04;;;;;;;18.38;12.35;;;9.50;69.70;;;;;;5065722;28;20353;-75
2021/01/09 12:05:30;;;;;;;18.30;13.07;;;9.20;69.60;;;;;;5049803;28;20462;-74
2021/01/09 12:07:57;;;;;;;19.13;12.90;;;9.10;69.50;;;;;;5064568;28;20536;-73
2021/01/09 12:10:43;;;;;;;16.05;11.88;;;9.00;70.60;;;;;;5063223;28;20067;-74
2021/01/09 12:13:10;;;;;;;18.17;13.30;;;9.00;70.20;;;;;;5064888;28;20329;-75
2021/01/09 12:15:37;;;;;;;17.85;13.10;;;7.90;72.10;;;;;;5064524;28;20049;-74
2021/01/09 12:18:04;;;;;;;20.08;14.98;;;6.80;77.70;;;;;;5042721;28;20107;-73
2021/01/09 12:20:30;;;;;;;21.25;15.15;;;5.70;90.50;;;;;;5061103;28;20041;-74
2021/01/09 12:22:57;;;;;;;23.48;15.48;;;5.00;94.80;;;;;;5062519;28;20061;-74
2021/01/09 12:25:24;;;;;;;27.63;16.83;;;4.10;99.90;;;;;;5062369;28;20060;-75
2021/01/09 12:27:51;;;;;;;25.73;16.58;;;3.60;99.90;;;;;;5062704;28;20121;-74
2021/01/09 12:30:18;;;;;;;23.70;15.63;;;3.30;99.90;;;;;;5065309;28;20044;-74
2021/01/09 12:32:45;;;;;;;24.60;15.60;;;3.00;99.90;;;;;;5065663;28;20163;-74
2021/01/09 12:35:13;;;;;;;23.00;15.93;;;2.80;99.90;;;;;;5066273;28;20417;-74
2021/01/09 12:37:40;;;;;;;24.60;15.50;;;2.70;99.90;;;;;;5064274;28;20080;-74
2021/01/09 12:40:07;;;;;;;20.77;14.32;;;2.60;99.90;;;;;;5062354;28;20102;-75
2021/01/09 12:42:35;;;;;;;22.00;13.25;;;2.50;99.90;;;;;;5066080;28;20052;-74
2021/01/09 12:45:03;;;;;;;23.60;14.98;;;2.20;99.90;;;;;;5045375;28;20484;-73
2021/01/09 12:47:29;;;;;;;22.75;14.82;;;1.80;99.90;;;;;;5063004;28;20118;-74
2021/01/09 12:49:56;;;;;;;25.52;15.13;;;1.80;99.90;;;;;;5065824;28;20139;-74
2021/01/09 12:52:22;;;;;;;24.00;15.23;;;2.00;99.90;;;;;;5066570;28;20052;-74
2021/01/09 12:54:49;;;;;;;22.58;14.73;;;2.20;99.90;;;;;;5058211;28;20445;-74
2021/01/09 12:57:15;;;;;;;22.65;13.93;;;2.50;99.90;;;;;;5048718;28;20079;-74
2021/01/09 12:59:42;;;;;;;18.58;12.25;;;2.70;99.90;;;;;;5059268;28;20052;-73
2021/01/09 13:02:08;;;;;;;18.50;11.80;;;3.20;99.90;;;;;;5063004;28;20124;-75
2021/01/09 13:04:35;;;;;;;18.75;12.70;;;4.50;99.90;;;;;;5065227;28;20545;-74
2021/01/09 13:07:01;;;;;;;18.15;11.60;;;6.20;92.90;;;;;;5063094;28;20072;-74
2021/01/09 13:09:29;;;;;;;20.50;13.18;;;6.40;82.70;;;;;;5052412;28;20048;-74
2021/01/09 13:11:58;;;;;;;18.90;12.05;;;5.40;89.10;;;;;;5059761;28;20055;-74
2021/01/09 13:14:26;;;;;;;17.50;12.23;;;4.60;95.80;;;;;;5054206;28;20113;-74
2021/01/09 13:16:55;;;;;;;20.15;12.52;;;4.10;99.90;;;;;;5062640;28;20044;-74
2021/01/09 13:19:25;;;;;;;19.85;12.23;;;3.50;99.90;;;;;;5039555;28;20041;-75
2021/01/09 13:21:54;;;;;;;18.80;12.82;;;3.10;99.90;;;;;;5059574;28;20118;-74
2021/01/09 13:24:23;;;;;;;17.98;12.35;;;2.80;99.90;;;;;;5044332;28;20667;-75
2021/01/09 13:26:49;;;;;;;23.70;13.75;;;2.60;99.90;;;;;;5058276;28;20056;-74